Time;durP1;ratioP1;P1;durP2;ratioP2;P2;SDS_P1;SDS_P2;PMS_P1;PMS_P2;Temp;Humidity;BMP_temperature;BMP_pressure;BME280_temperature;BME280_humidity;BME280_pressure;Samples;Min_cycle;Max_cycle;Signal;HPM_P1;HPM_P2
2022/01/20 00:02:05;;;;;;;53.65;13.43;;;8.30;68.60;;;;;;6240325;23;20007;-57
2022/01/20 00:05:40;;;;;;;48.42;12.27;;;8.30;68.50;;;;;;6233860;22;20004;-56
2022/01/20 00:07:33;;;;;;;59.20;12.68;;;8.30;68.50;;;;;;6208295;23;20319;-55
2022/01/20 00:26:15;;;;;;;55.67;11.02;;;8.30;68.00;;;;;;6243064;23;20022;-56
2022/01/20 00:28:44;;;;;;;54.83;12.02;;;8.20;67.90;;;;;;6234946;22;20003;-58
2022/01/20 00:33:50;;;;;;;53.97;11.40;;;8.10;67.90;;;;;;6244216;23;20008;-58
2022/01/20 00:38:43;;;;;;;48.90;11.57;;;8.10;67.80;;;;;;6234891;23;20522;-56
2022/01/20 00:41:15;;;;;;;55.47;12.05;;;8.10;67.80;;;;;;6232428;22;20013;-56
2022/01/20 00:43:42;;;;;;;50.85;10.68;;;8.10;67.80;;;;;;6234050;22;20004;-58
2022/01/20 00:46:08;;;;;;;52.90;12.05;;;8.10;67.70;;;;;;6233257;23;20462;-58
2022/01/20 00:48:35;;;;;;;47.67;11.48;;;8.10;67.60;;;;;;6232155;22;20447;-58
2022/01/20 00:51:01;;;;;;;54.13;13.50;;;8.00;67.50;;;;;;6233009;23;20166;-57
2022/01/20 00:53:27;;;;;;;46.50;12.05;;;8.00;67.50;;;;;;6232668;23;20004;-58
2022/01/20 00:55:53;;;;;;;53.38;13.52;;;8.00;67.40;;;;;;6233820;23;20456;-56
2022/01/20 00:58:19;;;;;;;51.30;11.23;;;7.90;67.30;;;;;;6233956;23;20535;-58
2022/01/20 01:00:46;;;;;;;51.40;12.70;;;7.90;67.40;;;;;;6233101;23;20337;-58
2022/01/20 01:03:12;;;;;;;57.13;12.10;;;7.80;67.40;;;;;;6243511;23;20008;-56
2022/01/20 01:05:50;;;;;;;46.78;11.50;;;7.80;67.50;;;;;;6234993;23;19997;-58
2022/01/20 01:08:16;;;;;;;59.97;13.95;;;7.80;67.60;;;;;;6243150;23;20004;-57
2022/01/20 01:10:44;;;;;;;61.05;12.60;;;7.70;67.70;;;;;;6230125;23;20008;-58
2022/01/20 01:13:14;;;;;;;41.80;12.07;;;7.70;68.00;;;;;;6233295;23;19992;-57
2022/01/20 01:15:45;;;;;;;55.58;13.20;;;7.70;68.40;;;;;;6232891;23;20000;-58
2022/01/20 01:23:31;;;;;;;54.97;11.27;;;7.60;68.70;;;;;;6234892;23;20019;-58
2022/01/20 01:25:58;;;;;;;63.92;12.25;;;7.60;68.70;;;;;;6234420;23;19996;-57
2022/01/20 01:28:29;;;;;;;47.55;10.57;;;7.60;68.80;;;;;;6234623;23;20453;-58
2022/01/20 01:31:29;;;;;;;43.53;10.32;;;7.70;68.90;;;;;;6231332;23;20007;-56
2022/01/20 01:33:56;;;;;;;46.10;10.70;;;7.70;68.80;;;;;;6233404;23;20012;-56
2022/01/20 01:36:26;;;;;;;62.75;11.82;;;7.80;68.80;;;;;;6230689;23;20007;-56
2022/01/20 01:38:52;;;;;;;38.97;9.82;;;7.80;68.70;;;;;;6232515;22;20012;-57
2022/01/20 01:41:33;;;;;;;48.95;10.95;;;7.80;68.50;;;;;;6231758;22;20008;-56
2022/01/20 01:44:05;;;;;;;57.75;12.00;;;7.80;69.00;;;;;;6233848;22;20008;-58
2022/01/20 01:46:31;;;;;;;50.53;12.50;;;7.90;68.40;;;;;;6232737;22;20286;-57
2022/01/20 01:48:58;;;;;;;55.53;13.38;;;7.90;68.30;;;;;;6233868;23;20331;-58
2022/01/20 01:51:24;;;;;;;44.47;12.38;;;7.90;68.30;;;;;;6232436;22;20012;-56
2022/01/20 01:53:51;;;;;;;43.78;12.10;;;8.00;68.90;;;;;;6234983;23;20004;-57
2022/01/20 01:56:18;;;;;;;42.35;11.05;;;8.00;68.10;;;;;;6231698;23;20290;-56
2022/01/20 01:58:44;;;;;;;39.50;10.93;;;8.00;68.00;;;;;;6232037;23;20004;-57
2022/01/20 02:01:10;;;;;;;42.92;10.95;;;8.00;67.90;;;;;;6231787;23;19996;-57
2022/01/20 02:03:44;;;;;;;45.08;11.57;;;8.00;67.80;;;;;;6233621;22;20000;-56
2022/01/20 02:20:13;;;;;;;42.70;9.05;;;8.10;66.40;;;;;;6243251;23;20007;-56
2022/01/20 02:22:40;;;;;;;40.65;8.70;;;8.10;66.10;;;;;;6233131;22;20421;-58
2022/01/20 02:25:18;;;;;;;56.03;10.00;;;8.00;65.90;;;;;;6233182;23;20003;-56
2022/01/20 02:27:44;;;;;;;41.72;8.63;;;8.00;65.80;;;;;;6234216;22;20019;-58
2022/01/20 02:30:11;;;;;;;46.05;7.97;;;8.00;65.80;;;;;;6233102;23;20011;-58
2022/01/20 02:32:37;;;;;;;49.95;9.25;;;7.90;65.70;;;;;;6232570;23;20190;-58
2022/01/20 02:35:07;;;;;;;36.92;8.32;;;7.90;65.80;;;;;;6233936;23;20003;-57
2022/01/20 02:37:33;;;;;;;45.17;9.85;;;7.90;65.80;;;;;;6233730;23;20031;-58
2022/01/20 02:45:29;;;;;;;44.08;8.70;;;7.70;65.80;;;;;;6244971;23;20015;-58
2022/01/20 02:47:55;;;;;;;38.83;8.25;;;7.70;65.90;;;;;;6233621;23;20433;-58
2022/01/20 02:50:21;;;;;;;38.38;6.95;;;7.70;66.10;;;;;;6230439;23;20349;-55
2022/01/20 02:52:47;;;;;;;34.05;7.82;;;7.70;66.10;;;;;;6235076;23;20308;-58
2022/01/20 02:55:14;;;;;;;44.50;6.95;;;7.70;66.20;;;;;;6234710;23;20000;-56
2022/01/20 02:57:40;;;;;;;45.13;6.53;;;7.60;66.20;;;;;;6233388;23;20015;-58
2022/01/20 03:00:07;;;;;;;31.63;7.05;;;7.60;66.30;;;;;;6234465;23;20333;-57
2022/01/20 03:02:34;;;;;;;37.33;7.15;;;7.60;66.40;;;;;;6204797;23;20012;-55
2022/01/20 03:05:00;;;;;;;54.10;7.68;;;7.60;66.40;;;;;;6235217;23;20004;-56
2022/01/20 03:07:26;;;;;;;40.05;6.88;;;7.60;66.40;;;;;;6233551;22;20015;-56
2022/01/20 03:09:52;;;;;;;41.55;8.00;;;7.60;66.50;;;;;;6234472;22;20000;-57
2022/01/20 03:12:18;;;;;;;41.63;7.75;;;7.60;66.50;;;;;;6234580;23;20007;-57
2022/01/20 03:14:45;;;;;;;31.92;5.95;;;7.50;66.50;;;;;;6234498;23;20000;-57
2022/01/20 03:17:13;;;;;;;31.42;6.72;;;7.60;66.60;;;;;;6232722;22;20008;-59
2022/01/20 03:19:39;;;;;;;35.53;6.15;;;7.50;66.50;;;;;;6234486;22;20004;-58
2022/01/20 03:22:05;;;;;;;34.60;6.38;;;7.60;66.50;;;;;;6234143;23;20417;-56
2022/01/20 03:24:32;;;;;;;37.17;6.45;;;7.60;66.50;;;;;;6234900;23;20003;-56
2022/01/20 03:26:58;;;;;;;32.35;5.43;;;7.50;66.40;;;;;;6232788;23;20004;-54
2022/01/20 03:29:24;;;;;;;45.22;6.55;;;7.50;66.30;;;;;;6236154;23;19996;-56
2022/01/20 03:31:50;;;;;;;38.40;6.22;;;7.50;66.20;;;;;;6230172;23;20000;-58
2022/01/20 03:34:17;;;;;;;44.35;6.05;;;7.50;66.20;;;;;;6235340;23;20008;-58
2022/01/20 03:36:43;;;;;;;29.48;5.10;;;7.50;66.20;;;;;;6231430;23;20007;-56
2022/01/20 03:39:09;;;;;;;43.95;6.28;;;7.50;66.10;;;;;;6235285;23;20012;-58
2022/01/20 03:41:35;;;;;;;34.03;5.88;;;7.50;66.20;;;;;;6232671;23;20000;-56
2022/01/20 03:44:02;;;;;;;49.25;6.00;;;7.50;66.30;;;;;;6233814;23;19996;-58
2022/01/20 03:46:28;;;;;;;23.60;5.50;;;7.50;66.40;;;;;;6231661;22;20008;-58
2022/01/20 03:49:03;;;;;;;30.35;5.40;;;7.40;66.40;;;;;;6235421;23;20000;-56
2022/01/20 03:51:29;;;;;;;33.92;5.18;;;7.40;66.40;;;;;;6232321;22;20000;-56
2022/01/20 03:53:56;;;;;;;30.50;5.93;;;7.40;66.20;;;;;;6236025;23;19992;-58
2022/01/20 03:56:22;;;;;;;30.77;4.93;;;7.40;66.00;;;;;;6234406;23;20000;-56
2022/01/20 03:58:50;;;;;;;33.97;5.28;;;7.40;65.90;;;;;;6235042;23;20011;-56
2022/01/20 04:01:17;;;;;;;34.30;5.57;;;7.40;65.90;;;;;;6232901;23;19996;-58
2022/01/20 04:03:44;;;;;;;35.63;5.70;;;7.30;65.80;;;;;;6234320;23;20035;-57
2022/01/20 04:06:10;;;;;;;35.15;5.95;;;7.30;65.80;;;;;;6235782;23;20004;-56
2022/01/20 04:08:39;;;;;;;29.90;5.05;;;7.30;65.90;;;;;;6236014;23;20317;-57
2022/01/20 04:11:11;;;;;;;31.15;4.47;;;7.30;66.10;;;;;;6233191;23;20440;-58
2022/01/20 04:13:39;;;;;;;32.90;4.53;;;7.30;66.10;;;;;;6244987;23;20732;-56
2022/01/20 04:16:16;;;;;;;33.00;4.50;;;7.30;66.20;;;;;;6232948;22;20015;-58
2022/01/20 04:18:56;;;;;;;32.22;4.85;;;7.30;66.10;;;;;;6233148;23;20365;-56
2022/01/20 04:21:25;;;;;;;30.23;5.05;;;7.30;66.10;;;;;;6233841;22;20019;-55
2022/01/20 04:23:53;;;;;;;27.10;4.10;;;7.30;66.00;;;;;;6234965;23;20000;-56
2022/01/20 04:26:20;;;;;;;38.72;5.22;;;7.30;65.90;;;;;;6232377;22;20004;-59
2022/01/20 04:28:48;;;;;;;35.10;4.93;;;7.30;65.80;;;;;;6235076;23;20520;-55
2022/01/20 04:31:14;;;;;;;29.30;3.67;;;7.20;65.70;;;;;;6232561;23;20266;-53
2022/01/20 04:33:40;;;;;;;19.13;3.70;;;7.30;65.90;;;;;;6233787;23;20334;-58
2022/01/20 04:36:07;;;;;;;20.83;3.45;;;7.30;65.90;;;;;;6233983;23;19997;-58
2022/01/20 04:38:34;;;;;;;31.33;3.95;;;7.30;65.80;;;;;;6234090;22;20333;-58
2022/01/20 04:41:00;;;;;;;26.27;4.13;;;7.30;65.70;;;;;;6232481;22;20004;-58
2022/01/20 04:43:27;;;;;;;23.35;3.42;;;7.20;65.70;;;;;;6231521;23;20429;-56
2022/01/20 04:46:02;;;;;;;23.90;3.80;;;7.30;65.70;;;;;;6233764;23;19992;-53
2022/01/20 04:49:04;;;;;;;25.38;3.58;;;7.20;65.50;;;;;;6232948;22;20007;-58
2022/01/20 04:59:38;;;;;;;16.67;3.17;;;7.20;65.60;;;;;;6243985;23;20015;-57
2022/01/20 05:02:04;;;;;;;26.83;3.83;;;7.20;65.60;;;;;;6230742;23;20325;-58
2022/01/20 05:04:30;;;;;;;30.70;3.10;;;7.20;65.70;;;;;;6234191;23;19999;-56
2022/01/20 05:06:58;;;;;;;21.20;3.08;;;7.20;65.70;;;;;;6234898;23;19996;-56
2022/01/20 05:09:25;;;;;;;26.48;4.30;;;7.20;65.70;;;;;;6232835;22;20007;-56
2022/01/20 05:12:01;;;;;;;23.75;4.70;;;7.20;65.60;;;;;;6231066;22;20004;-55
2022/01/20 05:14:28;;;;;;;23.90;3.92;;;7.20;65.60;;;;;;6244138;23;20798;-57
2022/01/20 05:16:55;;;;;;;26.10;4.15;;;7.20;65.70;;;;;;6225624;22;20015;-54
2022/01/20 05:19:24;;;;;;;27.48;4.28;;;7.20;65.70;;;;;;6231900;22;20004;-58
2022/01/20 05:21:50;;;;;;;23.63;4.05;;;7.10;65.70;;;;;;6233550;23;20027;-56
2022/01/20 05:24:16;;;;;;;22.00;4.15;;;7.10;65.80;;;;;;6234943;23;20019;-58
2022/01/20 05:26:42;;;;;;;21.15;3.88;;;7.10;65.80;;;;;;6233802;23;20000;-57
2022/01/20 05:29:08;;;;;;;29.33;4.35;;;7.10;65.80;;;;;;6233450;23;20408;-57
2022/01/20 05:31:35;;;;;;;27.13;4.43;;;7.10;65.80;;;;;;6229352;23;20014;-56
2022/01/20 05:34:01;;;;;;;25.00;4.25;;;7.10;65.80;;;;;;6232178;23;20010;-58
2022/01/20 05:36:27;;;;;;;35.75;5.22;;;7.10;65.90;;;;;;6234061;23;19997;-57
2022/01/20 05:38:53;;;;;;;31.17;4.72;;;7.10;65.90;;;;;;6234278;23;20000;-56
2022/01/20 05:41:20;;;;;;;24.98;4.97;;;7.10;65.90;;;;;;6231887;23;20003;-56
2022/01/20 05:43:46;;;;;;;26.67;5.28;;;7.10;66.00;;;;;;6231917;23;20006;-56
2022/01/20 05:46:15;;;;;;;30.88;5.35;;;7.10;66.20;;;;;;6231570;23;19996;-56
2022/01/20 05:48:47;;;;;;;23.50;4.95;;;7.20;66.30;;;;;;6230126;22;20004;-58
2022/01/20 05:51:14;;;;;;;24.58;5.50;;;7.20;66.20;;;;;;6232866;22;20008;-57
2022/01/20 05:53:40;;;;;;;23.70;4.40;;;7.20;66.20;;;;;;6231041;22;20004;-55
2022/01/20 05:56:08;;;;;;;27.50;4.70;;;7.20;66.30;;;;;;6234074;23;20416;-54
2022/01/20 05:58:36;;;;;;;21.83;3.88;;;7.20;66.30;;;;;;6232433;23;20015;-57
2022/01/20 06:01:05;;;;;;;24.65;3.78;;;7.20;66.30;;;;;;6230045;22;20421;-57
2022/01/20 06:03:37;;;;;;;17.15;4.03;;;7.20;66.30;;;;;;6232863;23;20007;-56
2022/01/20 06:06:08;;;;;;;22.38;3.38;;;7.20;66.30;;;;;;6233509;22;20000;-57
2022/01/20 06:08:36;;;;;;;28.20;4.72;;;7.20;66.20;;;;;;6243874;23;20690;-57
2022/01/20 06:11:03;;;;;;;23.70;3.60;;;7.20;66.20;;;;;;6233211;23;20015;-54
2022/01/20 06:13:29;;;;;;;21.13;4.32;;;7.20;66.20;;;;;;6235793;23;20336;-54
2022/01/20 06:15:56;;;;;;;22.20;4.07;;;7.20;66.30;;;;;;6234184;23;20429;-55
2022/01/20 06:18:23;;;;;;;26.58;3.70;;;7.20;66.30;;;;;;6231841;22;20016;-56
2022/01/20 06:20:50;;;;;;;21.45;3.45;;;7.20;66.30;;;;;;6234151;23;19996;-57
2022/01/20 06:23:18;;;;;;;20.10;3.75;;;7.20;66.30;;;;;;6233999;23;20400;-53
2022/01/20 06:25:45;;;;;;;19.92;4.22;;;7.20;66.30;;;;;;6234978;23;20179;-57
2022/01/20 06:28:12;;;;;;;23.52;4.45;;;7.20;66.30;;;;;;6234461;23;20333;-57
2022/01/20 06:30:38;;;;;;;18.35;3.65;;;7.20;66.30;;;;;;6234911;23;20004;-58
2022/01/20 06:33:05;;;;;;;25.98;4.45;;;7.20;66.30;;;;;;6234183;23;20429;-55
2022/01/20 06:35:32;;;;;;;22.25;5.05;;;7.20;66.30;;;;;;6232548;22;20008;-57
2022/01/20 06:37:59;;;;;;;23.77;5.43;;;7.10;66.20;;;;;;6228064;23;20441;-58
2022/01/20 06:40:25;;;;;;;22.02;4.53;;;7.10;66.20;;;;;;6235144;23;20001;-57
2022/01/20 06:42:52;;;;;;;22.92;5.97;;;7.10;66.10;;;;;;6232820;23;20008;-57
2022/01/20 06:45:20;;;;;;;25.98;5.07;;;7.10;65.90;;;;;;6235493;23;20167;-52
2022/01/20 06:47:46;;;;;;;29.00;4.53;;;7.10;65.90;;;;;;6233001;22;20008;-55
2022/01/20 06:50:14;;;;;;;25.45;3.92;;;7.00;65.80;;;;;;6234773;23;19999;-56
2022/01/20 06:52:41;;;;;;;15.52;3.42;;;7.00;66.10;;;;;;6235445;23;20000;-54
2022/01/20 06:55:10;;;;;;;25.95;4.45;;;7.00;66.20;;;;;;6233242;23;20004;-56
2022/01/20 06:57:38;;;;;;;13.98;3.47;;;6.90;66.10;;;;;;6232127;22;20007;-56
2022/01/20 07:00:11;;;;;;;14.23;2.95;;;6.90;66.20;;;;;;6232100;23;20380;-55
2022/01/20 07:02:37;;;;;;;17.08;3.42;;;6.90;66.40;;;;;;6241184;23;19992;-56
2022/01/20 07:05:04;;;;;;;12.73;3.50;;;6.80;66.50;;;;;;6232664;23;19996;-53
2022/01/20 07:07:31;;;;;;;14.88;3.38;;;6.80;66.60;;;;;;6232746;23;20007;-58
2022/01/20 07:09:57;;;;;;;18.40;3.80;;;6.70;66.70;;;;;;6234345;23;20000;-49
2022/01/20 07:12:24;;;;;;;17.38;4.20;;;6.60;65.40;;;;;;6233479;22;20015;-54
2022/01/20 07:14:50;;;;;;;23.30;4.40;;;6.60;65.80;;;;;;6235209;23;20008;-53
2022/01/20 07:17:16;;;;;;;18.00;4.35;;;6.60;65.90;;;;;;6233046;22;20019;-58
2022/01/20 07:19:42;;;;;;;19.17;4.13;;;6.50;65.80;;;;;;6231937;23;20012;-55
2022/01/20 07:22:09;;;;;;;16.95;4.35;;;6.50;65.80;;;;;;6233618;23;20266;-58
2022/01/20 07:24:35;;;;;;;18.77;4.75;;;6.40;65.60;;;;;;6236038;23;20004;-56
2022/01/20 07:27:01;;;;;;;23.65;4.90;;;6.50;66.40;;;;;;6233718;22;20000;-58
2022/01/20 07:29:27;;;;;;;18.73;4.35;;;6.40;65.50;;;;;;6233340;23;20412;-57
2022/01/20 07:31:54;;;;;;;21.15;4.15;;;6.40;65.50;;;;;;6231688;23;20008;-57
2022/01/20 07:34:20;;;;;;;18.33;4.05;;;6.40;65.60;;;;;;6229239;23;20000;-57
2022/01/20 07:36:46;;;;;;;22.13;4.75;;;6.40;65.70;;;;;;6232590;23;20000;-56
2022/01/20 07:39:13;;;;;;;14.90;3.28;;;6.40;65.80;;;;;;6231893;23;20005;-57
2022/01/20 07:41:39;;;;;;;23.13;3.30;;;6.40;65.70;;;;;;6233624;23;20008;-56
2022/01/20 07:44:05;;;;;;;15.55;3.58;;;6.40;65.50;;;;;;6235120;23;20004;-57
2022/01/20 07:46:31;;;;;;;16.63;3.45;;;6.40;65.60;;;;;;6229466;23;20008;-57
2022/01/20 07:48:57;;;;;;;18.02;3.78;;;6.40;65.50;;;;;;6233624;23;20441;-56
2022/01/20 07:51:24;;;;;;;20.27;3.22;;;6.40;65.50;;;;;;6234077;23;20000;-57
2022/01/20 07:53:50;;;;;;;15.70;3.20;;;6.40;65.20;;;;;;6233412;22;20436;-56
2022/01/20 07:56:16;;;;;;;24.50;3.80;;;6.40;65.20;;;;;;6234857;23;20361;-54
2022/01/20 07:58:42;;;;;;;16.52;3.83;;;6.40;65.10;;;;;;6233970;23;20007;-56
2022/01/20 08:01:09;;;;;;;26.20;4.13;;;6.40;65.00;;;;;;6228174;23;20000;-53
2022/01/20 08:03:35;;;;;;;22.40;3.92;;;6.40;64.80;;;;;;6231310;23;20008;-56
2022/01/20 08:06:01;;;;;;;19.40;3.53;;;6.40;64.70;;;;;;6231585;23;20420;-55
2022/01/20 08:08:27;;;;;;;20.23;3.83;;;6.40;64.70;;;;;;6233485;23;20499;-52
2022/01/20 08:10:54;;;;;;;24.67;3.72;;;6.40;64.60;;;;;;6232161;23;20250;-56
2022/01/20 08:13:20;;;;;;;17.20;3.65;;;6.30;64.30;;;;;;6230526;23;20604;-54
2022/01/20 08:15:46;;;;;;;29.90;4.88;;;6.30;64.00;;;;;;6233022;22;20007;-57
2022/01/20 08:18:13;;;;;;;20.95;3.78;;;6.30;64.00;;;;;;6233399;22;20008;-58
2022/01/20 08:20:39;;;;;;;25.30;3.90;;;6.30;64.00;;;;;;6233153;23;20205;-57
2022/01/20 08:23:06;;;;;;;13.00;2.95;;;6.40;64.30;;;;;;6234259;23;19996;-58
2022/01/20 08:25:34;;;;;;;24.30;3.70;;;6.40;64.40;;;;;;6233867;23;20003;-56
2022/01/20 08:28:00;;;;;;;22.83;3.38;;;6.40;64.30;;;;;;6231235;23;20440;-56
2022/01/20 08:30:27;;;;;;;18.60;3.17;;;6.50;64.40;;;;;;6231361;23;20004;-57
2022/01/20 08:32:53;;;;;;;21.42;3.65;;;6.50;64.30;;;;;;6228537;23;19997;-58
2022/01/20 08:35:22;;;;;;;26.35;4.03;;;6.60;64.10;;;;;;6230684;22;20008;-55
2022/01/20 08:37:49;;;;;;;29.92;4.47;;;6.60;64.00;;;;;;6229953;23;20011;-56
2022/01/20 08:40:18;;;;;;;31.00;4.22;;;6.60;64.00;;;;;;6231192;22;20020;-58
2022/01/20 08:42:47;;;;;;;17.25;4.05;;;6.60;64.00;;;;;;6234114;23;19996;-56
2022/01/20 08:45:16;;;;;;;15.32;3.65;;;6.60;64.00;;;;;;6232158;23;20333;-55
2022/01/20 08:47:42;;;;;;;18.40;3.88;;;6.60;64.70;;;;;;6226081;23;20003;-55
2022/01/20 08:50:11;;;;;;;19.45;3.42;;;6.70;64.00;;;;;;6230424;22;20019;-56
2022/01/20 08:52:38;;;;;;;26.08;3.53;;;6.70;63.60;;;;;;6229802;23;20011;-56
2022/01/20 08:55:06;;;;;;;21.73;3.78;;;6.70;63.60;;;;;;6233785;23;20001;-57
2022/01/20 08:57:32;;;;;;;18.17;2.80;;;6.70;63.60;;;;;;6232341;23;19992;-58
2022/01/20 08:59:58;;;;;;;38.28;3.63;;;6.70;63.80;;;;;;6231073;23;20282;-57
2022/01/20 09:02:25;;;;;;;26.45;3.85;;;6.70;63.30;;;;;;6229805;23;20008;-56
2022/01/20 09:04:51;;;;;;;13.55;3.33;;;6.70;62.80;;;;;;6231292;23;20489;-58
2022/01/20 09:07:18;;;;;;;23.73;3.03;;;6.70;62.40;;;;;;6232473;23;20436;-56
2022/01/20 09:09:47;;;;;;;29.52;5.10;;;6.70;62.50;;;;;;6234235;23;20321;-58
2022/01/20 09:15:27;;;;;;;25.48;3.60;;;6.70;62.40;;;;;;6231350;22;20354;-55
2022/01/20 09:15:28;;;;;;;25.27;3.90;;;6.70;62.40;;;;;;6242899;23;20202;-56
2022/01/20 09:17:56;;;;;;;23.92;4.03;;;6.70;61.20;;;;;;6233944;22;20503;-58
2022/01/20 09:20:23;;;;;;;23.27;3.47;;;6.70;61.70;;;;;;6233893;23;20441;-57
2022/01/20 09:22:51;;;;;;;18.85;2.75;;;6.70;61.30;;;;;;6232986;23;20004;-56
2022/01/20 09:25:18;;;;;;;24.98;3.83;;;6.60;61.40;;;;;;6233030;22;20004;-59
2022/01/20 09:27:44;;;;;;;20.45;3.67;;;6.70;61.20;;;;;;6232052;23;20311;-59
2022/01/20 09:30:17;;;;;;;22.45;3.60;;;6.70;61.30;;;;;;6233085;23;20000;-58
2022/01/20 09:32:46;;;;;;;20.15;3.22;;;6.70;61.10;;;;;;6231372;22;20012;-58
2022/01/20 09:35:13;;;;;;;16.02;3.17;;;6.70;61.30;;;;;;6232773;23;20003;-58
2022/01/20 09:37:40;;;;;;;22.13;4.03;;;6.70;60.70;;;;;;6232714;23;20007;-57
2022/01/20 09:40:09;;;;;;;25.45;4.85;;;6.80;60.20;;;;;;6228666;23;20004;-56
2022/01/20 09:42:36;;;;;;;27.33;4.22;;;6.80;59.30;;;;;;6232068;23;20019;-57
2022/01/20 09:45:02;;;;;;;22.08;3.40;;;6.70;58.10;;;;;;6232764;23;20004;-59
2022/01/20 09:47:29;;;;;;;37.30;5.22;;;6.60;58.60;;;;;;6230606;23;20231;-56
2022/01/20 09:49:55;;;;;;;28.98;4.75;;;6.60;58.40;;;;;;6232679;23;20325;-56
2022/01/20 09:52:23;;;;;;;21.35;3.15;;;6.60;58.20;;;;;;6232622;23;20011;-58
2022/01/20 09:54:49;;;;;;;30.27;3.95;;;6.50;58.50;;;;;;6232658;23;19993;-59
2022/01/20 09:57:15;;;;;;;27.10;5.28;;;6.50;58.40;;;;;;6232271;23;20016;-57
2022/01/20 09:59:41;;;;;;;26.77;4.50;;;6.60;58.40;;;;;;6231794;23;20020;-59
2022/01/20 10:02:09;;;;;;;29.45;3.63;;;6.60;58.70;;;;;;6231376;23;19996;-59
2022/01/20 10:04:36;;;;;;;20.45;3.80;;;6.60;59.20;;;;;;6228817;23;20004;-58
2022/01/20 10:07:13;;;;;;;38.15;3.72;;;6.70;59.50;;;;;;6229662;23;20000;-59
2022/01/20 10:09:45;;;;;;;30.38;4.25;;;6.80;59.80;;;;;;6231992;23;20535;-57
2022/01/20 10:12:15;;;;;;;27.38;4.35;;;6.80;59.80;;;;;;6229961;22;20000;-57
2022/01/20 10:15:02;;;;;;;22.88;4.20;;;6.80;59.70;;;;;;6232017;23;20523;-59
2022/01/20 10:17:30;;;;;;;25.83;4.22;;;6.80;59.40;;;;;;6229391;22;20035;-57
2022/01/20 10:20:04;;;;;;;30.88;4.28;;;6.80;59.40;;;;;;6229477;23;20004;-58
2022/01/20 10:22:32;;;;;;;31.85;4.47;;;6.80;59.20;;;;;;6231979;22;20000;-54
2022/01/20 10:25:08;;;;;;;29.15;4.03;;;6.70;58.90;;;;;;6232731;23;19996;-57
2022/01/20 10:27:46;;;;;;;23.67;3.83;;;6.70;59.10;;;;;;6232437;22;20031;-57
2022/01/20 10:30:12;;;;;;;20.40;3.25;;;6.80;59.00;;;;;;6243182;23;20004;-58
2022/01/20 10:32:41;;;;;;;24.17;3.53;;;6.70;59.00;;;;;;6231672;22;20004;-59
2022/01/20 10:35:09;;;;;;;19.30;3.92;;;6.70;58.90;;;;;;6234110;23;20008;-58
2022/01/20 10:37:35;;;;;;;20.88;2.72;;;6.70;58.80;;;;;;6234514;23;20026;-55
2022/01/20 10:40:09;;;;;;;21.50;3.08;;;6.70;58.40;;;;;;6232937;22;20198;-56
2022/01/20 10:42:41;;;;;;;22.13;3.10;;;6.70;58.20;;;;;;6234174;23;20015;-59
2022/01/20 10:45:17;;;;;;;16.58;3.63;;;6.70;58.60;;;;;;6233854;22;20000;-59
2022/01/20 10:47:55;;;;;;;20.30;3.47;;;6.70;58.20;;;;;;6242001;23;20000;-59
2022/01/20 10:50:27;;;;;;;15.65;3.10;;;6.70;58.10;;;;;;6230532;23;20007;-58
2022/01/20 10:52:54;;;;;;;22.20;3.13;;;6.70;57.80;;;;;;6242598;23;20425;-58
2022/01/20 10:55:30;;;;;;;20.52;4.03;;;6.70;57.90;;;;;;6233175;23;19999;-57
2022/01/20 10:58:12;;;;;;;19.02;2.90;;;6.80;57.80;;;;;;6244506;23;20007;-58
2022/01/20 11:00:45;;;;;;;19.13;3.03;;;6.80;57.90;;;;;;6234968;22;20274;-58
2022/01/20 11:03:12;;;;;;;17.20;3.25;;;6.90;57.40;;;;;;6234220;22;20451;-54
2022/01/20 11:05:40;;;;;;;18.15;3.13;;;6.90;56.40;;;;;;6227444;23;20333;-55
2022/01/20 11:08:07;;;;;;;18.33;2.80;;;6.90;56.60;;;;;;6230143;22;20170;-51
2022/01/20 11:10:33;;;;;;;19.88;2.80;;;6.90;55.80;;;;;;6229818;23;20652;-56
2022/01/20 11:13:00;;;;;;;10.50;2.03;;;6.90;55.90;;;;;;6230064;23;20023;-52
2022/01/20 11:15:29;;;;;;;17.90;3.22;;;6.90;55.60;;;;;;6236137;23;20000;-56
2022/01/20 11:17:56;;;;;;;16.02;2.55;;;6.80;54.90;;;;;;6232828;22;20019;-56
2022/01/20 11:20:27;;;;;;;14.43;3.47;;;6.80;54.90;;;;;;6236325;23;20015;-56
2022/01/20 11:22:58;;;;;;;20.20;3.00;;;6.70;54.70;;;;;;6233674;22;20007;-54
2022/01/20 11:25:27;;;;;;;15.43;2.53;;;6.70;55.10;;;;;;6243543;23;19992;-56
2022/01/20 11:28:24;;;;;;;15.95;2.70;;;6.70;54.80;;;;;;6228577;23;20000;-58
2022/01/20 11:30:56;;;;;;;15.43;2.47;;;6.60;55.30;;;;;;6181302;23;20011;-58
2022/01/20 11:33:32;;;;;;;24.17;2.85;;;6.70;55.10;;;;;;6233351;23;20000;-54
2022/01/20 11:35:59;;;;;;;19.40;2.35;;;6.70;54.70;;;;;;6244510;23;20189;-59
2022/01/20 11:38:47;;;;;;;19.33;2.83;;;6.70;54.70;;;;;;6232920;23;20000;-59
2022/01/20 11:41:14;;;;;;;14.43;2.70;;;6.70;54.90;;;;;;6242511;23;20004;-58
2022/01/20 11:43:48;;;;;;;16.95;2.70;;;6.70;54.90;;;;;;6234511;23;20000;-58
2022/01/20 11:46:27;;;;;;;18.80;2.85;;;6.70;54.50;;;;;;6224242;23;20004;-55
2022/01/20 11:49:02;;;;;;;18.23;2.50;;;6.80;54.70;;;;;;6222976;22;20333;-55
2022/01/20 11:51:41;;;;;;;11.48;2.20;;;6.80;54.90;;;;;;6230527;23;20000;-58
2022/01/20 11:54:08;;;;;;;9.55;2.40;;;6.80;55.20;;;;;;6244861;23;19992;-58
2022/01/20 11:56:40;;;;;;;12.35;2.35;;;6.90;55.50;;;;;;6229986;23;20000;-59
2022/01/20 11:59:09;;;;;;;20.65;3.65;;;7.00;55.80;;;;;;6245110;23;20110;-52
2022/01/20 12:01:48;;;;;;;18.85;2.80;;;7.00;55.30;;;;;;6232054;23;20004;-50
2022/01/20 12:04:16;;;;;;;18.52;3.38;;;7.00;53.80;;;;;;6233555;22;20008;-54
2022/01/20 12:06:46;;;;;;;19.48;2.90;;;7.00;53.70;;;;;;6234971;23;20004;-58
2022/01/20 12:09:14;;;;;;;11.13;2.30;;;6.90;53.60;;;;;;6234131;23;20330;-51
2022/01/20 12:11:42;;;;;;;16.02;2.92;;;6.90;53.40;;;;;;6233106;23;20000;-55
2022/01/20 12:14:09;;;;;;;18.77;2.83;;;6.90;53.80;;;;;;6232603;23;20000;-59
2022/01/20 12:16:37;;;;;;;15.50;2.72;;;6.90;54.10;;;;;;6233807;22;20004;-59
2022/01/20 12:19:08;;;;;;;16.75;2.78;;;6.80;53.90;;;;;;6243367;23;20003;-58
2022/01/20 12:21:36;;;;;;;20.65;2.85;;;6.80;54.20;;;;;;6244778;23;20317;-59
2022/01/20 12:24:03;;;;;;;21.05;2.63;;;6.80;54.20;;;;;;6234747;23;19996;-58
2022/01/20 12:26:36;;;;;;;23.38;2.83;;;6.70;54.30;;;;;;6234364;23;20365;-59
2022/01/20 12:29:08;;;;;;;13.27;2.40;;;6.70;54.20;;;;;;6234521;23;20307;-56
2022/01/20 12:31:56;;;;;;;15.50;2.88;;;6.80;54.40;;;;;;6230323;23;20011;-59
2022/01/20 12:34:22;;;;;;;16.23;2.83;;;6.70;54.60;;;;;;6232487;22;20015;-59
2022/01/20 12:36:57;;;;;;;15.57;3.10;;;6.80;54.60;;;;;;6233893;23;20421;-59
2022/01/20 12:39:26;;;;;;;13.90;2.63;;;6.70;54.30;;;;;;6235115;23;20008;-59
2022/01/20 12:41:56;;;;;;;16.20;2.53;;;6.80;54.30;;;;;;6230954;22;20417;-58
2022/01/20 12:44:24;;;;;;;17.67;2.90;;;6.70;54.20;;;;;;6231609;23;20425;-58
2022/01/20 12:46:50;;;;;;;14.18;2.50;;;6.70;54.10;;;;;;6232278;23;19992;-58
2022/01/20 12:49:18;;;;;;;18.83;2.95;;;6.70;54.10;;;;;;6235500;23;20007;-58
2022/01/20 12:51:54;;;;;;;16.95;2.88;;;6.70;54.30;;;;;;6233507;22;20355;-57
2022/01/20 12:54:32;;;;;;;13.57;2.45;;;6.70;54.30;;;;;;6232650;22;20008;-55
2022/01/20 12:57:07;;;;;;;21.92;3.15;;;6.70;54.10;;;;;;6234113;22;20369;-58
2022/01/20 12:59:38;;;;;;;18.05;3.33;;;6.70;53.80;;;;;;6244648;23;20004;-57
2022/01/20 13:02:13;;;;;;;16.75;2.95;;;6.60;53.50;;;;;;6241261;23;20341;-56
2022/01/20 13:04:40;;;;;;;16.33;2.40;;;6.70;53.80;;;;;;6244785;23;19996;-53
2022/01/20 13:07:10;;;;;;;21.60;2.83;;;6.60;53.80;;;;;;6223980;23;20551;-58
2022/01/20 13:09:42;;;;;;;19.77;3.03;;;6.60;53.70;;;;;;6226860;23;20000;-58
2022/01/20 13:12:10;;;;;;;18.70;2.50;;;6.60;53.70;;;;;;6225375;22;20004;-56
2022/01/20 13:14:45;;;;;;;20.42;2.83;;;6.60;53.40;;;;;;6232492;23;20000;-54
2022/01/20 13:17:18;;;;;;;19.58;2.58;;;6.60;52.30;;;;;;6232043;22;20027;-59
2022/01/20 13:19:46;;;;;;;23.02;3.40;;;6.60;52.90;;;;;;6244509;23;20012;-57
2022/01/20 13:22:24;;;;;;;17.88;2.83;;;6.60;53.30;;;;;;6232587;23;19992;-58
2022/01/20 13:24:50;;;;;;;23.05;3.03;;;6.60;53.70;;;;;;6234727;23;19996;-57
2022/01/20 13:27:17;;;;;;;25.10;2.67;;;6.60;53.90;;;;;;6231633;23;20000;-57
2022/01/20 13:29:51;;;;;;;16.45;2.92;;;6.60;53.60;;;;;;6221029;23;19996;-58
2022/01/20 13:32:18;;;;;;;17.95;3.28;;;6.70;53.70;;;;;;6230931;23;20004;-57
2022/01/20 13:34:58;;;;;;;31.80;3.05;;;6.70;53.80;;;;;;6223823;23;20012;-55
2022/01/20 13:37:26;;;;;;;13.57;2.83;;;6.70;53.50;;;;;;6240780;23;20429;-55
2022/01/20 13:39:56;;;;;;;26.70;3.20;;;6.80;53.60;;;;;;6233255;22;20031;-53
2022/01/20 13:45:14;;;;;;;20.95;3.63;;;6.70;53.10;;;;;;6232178;23;20008;-58
2022/01/20 13:47:52;;;;;;;21.77;3.33;;;6.70;53.10;;;;;;6231557;22;20004;-59
2022/01/20 13:50:24;;;;;;;14.07;2.20;;;6.80;53.30;;;;;;6233863;23;20000;-56
2022/01/20 13:52:51;;;;;;;24.42;3.13;;;6.80;53.60;;;;;;6234105;22;20004;-56